sensor_id;sensor_type;location;lat;lon;timestamp;pressure;altitude;pressure_sealevel;temperature;humidity
60337;BME280;46978;50.288;28.624;2023-04-04T00:00:21;99143.36;;;-0.86;100.00
60337;BME280;46978;50.288;28.624;2023-04-04T00:01:27;99145.02;;;-0.88;100.00
60337;BME280;46978;50.288;28.624;2023-04-04T00:02:29;99144.98;;;-0.89;100.00
60337;BME280;46978;50.288;28.624;2023-04-04T00:03:31;99148.34;;;-0.91;100.00
60337;BME280;46978;50.288;28.624;2023-04-04T00:04:32;99144.91;;;-0.93;100.00
60337;BME280;46978;50.288;28.624;2023-04-04T00:05:53;99142.36;;;-0.93;100.00
60337;BME280;46978;50.288;28.624;2023-04-04T00:06:54;99142.39;;;-0.91;100.00
60337;BME280;46978;50.288;28.624;2023-04-04T00:07:56;99143.20;;;-0.92;100.00
60337;BME280;46978;50.288;28.624;2023-04-04T00:08:58;99141.44;;;-0.95;100.00
60337;BME280;46978;50.288;28.624;2023-04-04T00:09:59;99147.45;;;-0.93;100.00
60337;BME280;46978;50.288;28.624;2023-04-04T00:11:01;99147.45;;;-0.93;100.00
60337;BME280;46978;50.288;28.624;2023-04-04T00:12:04;99150.00;;;-0.93;100.00
60337;BME280;46978;50.288;28.624;2023-04-04T00:13:05;99145.75;;;-0.92;100.00
60337;BME280;46978;50.288;28.624;2023-04-04T00:14:07;99148.27;;;-0.94;100.00
60337;BME280;46978;50.288;28.624;2023-04-04T00:15:09;99150.73;;;-0.97;100.00
60337;BME280;46978;50.288;28.624;2023-04-04T00:16:12;99149.11;;;-0.93;100.00
60337;BME280;46978;50.288;28.624;2023-04-04T00:17:13;99160.15;;;-0.94;100.00
60337;BME280;46978;50.288;28.624;2023-04-04T00:18:16;99153.36;;;-0.94;100.00
60337;BME280;46978;50.288;28.624;2023-04-04T00:19:18;99150.77;;;-0.95;100.00
60337;BME280;46978;50.288;28.624;2023-04-04T00:20:20;99155.91;;;-0.94;100.00
60337;BME280;46978;50.288;28.624;2023-04-04T00:21:21;99147.41;;;-0.94;100.00
60337;BME280;46978;50.288;28.624;2023-04-04T00:22:23;99150.84;;;-0.92;100.00
60337;BME280;46978;50.288;28.624;2023-04-04T00:23:25;99151.70;;;-0.92;100.00
60337;BME280;46978;50.288;28.624;2023-04-04T00:24:26;99159.34;;;-0.92;100.00
60337;BME280;46978;50.288;28.624;2023-04-04T00:25:28;99159.34;;;-0.92;100.00
60337;BME280;46978;50.288;28.624;2023-04-04T00:26:30;99160.15;;;-0.94;100.00
60337;BME280;46978;50.288;28.624;2023-04-04T00:27:31;99153.36;;;-0.94;100.00
60337;BME280;46978;50.288;28.624;2023-04-04T00:28:33;99158.45;;;-0.94;100.00
60337;BME280;46978;50.288;28.624;2023-04-04T00:29:36;99151.66;;;-0.93;100.00
60337;BME280;46978;50.288;28.624;2023-04-04T00:30:38;99157.64;;;-0.93;100.00
60337;BME280;46978;50.288;28.624;2023-04-04T00:31:40;99147.34;;;-0.97;100.00
60337;BME280;46978;50.288;28.624;2023-04-04T00:32:41;99148.23;;;-0.95;100.00
60337;BME280;46978;50.288;28.624;2023-04-04T00:33:45;99152.51;;;-0.94;100.00
60337;BME280;46978;50.288;28.624;2023-04-04T00:34:52;99153.36;;;-0.94;100.00
60337;BME280;46978;50.288;28.624;2023-04-04T00:35:53;99149.08;;;-0.95;100.00
60337;BME280;46978;50.288;28.624;2023-04-04T00:36:55;99151.51;;;-0.99;100.00
60337;BME280;46978;50.288;28.624;2023-04-04T00:37:57;99156.64;;;-0.98;100.00
60337;BME280;46978;50.288;28.624;2023-04-04T00:38:59;99156.56;;;-1.01;100.00
60337;BME280;46978;50.288;28.624;2023-04-04T00:40:00;99154.94;;;-0.99;100.00
60337;BME280;46978;50.288;28.624;2023-04-04T00:41:02;99158.30;;;-1.00;100.00
60337;BME280;46978;50.288;28.624;2023-04-04T00:42:04;99153.13;;;-1.03;100.00
60337;BME280;46978;50.288;28.624;2023-04-04T00:43:07;99151.39;;;-1.04;100.00
60337;BME280;46978;50.288;28.624;2023-04-04T00:44:10;99154.86;;;-1.02;100.00
60337;BME280;46978;50.288;28.624;2023-04-04T00:45:12;99143.02;;;-1.00;100.00
60337;BME280;46978;50.288;28.624;2023-04-04T00:46:14;99154.86;;;-1.02;100.00
60337;BME280;46978;50.288;28.624;2023-04-04T00:47:16;99154.86;;;-1.02;100.00
60337;BME280;46978;50.288;28.624;2023-04-04T00:48:19;99152.36;;;-1.00;100.00
60337;BME280;46978;50.288;28.624;2023-04-04T00:49:21;99146.45;;;-0.98;100.00
60337;BME280;46978;50.288;28.624;2023-04-04T00:50:23;99146.45;;;-0.98;100.00
60337;BME280;46978;50.288;28.624;2023-04-04T00:51:24;99154.05;;;-0.99;100.00
60337;BME280;46978;50.288;28.624;2023-04-04T00:52:26;99147.34;;;-0.97;100.00
60337;BME280;46978;50.288;28.624;2023-04-04T00:53:28;99160.07;;;-0.97;100.00
60337;BME280;46978;50.288;28.624;2023-04-04T00:54:29;99154.17;;;-0.95;100.00
60337;BME280;46978;50.288;28.624;2023-04-04T00:55:31;99149.08;;;-0.95;100.00
60337;BME280;46978;50.288;28.624;2023-04-04T00:56:36;99148.27;;;-0.94;100.00
60337;BME280;46978;50.288;28.624;2023-04-04T00:57:38;99151.62;;;-0.95;100.00
60337;BME280;46978;50.288;28.624;2023-04-04T00:58:41;99156.60;;;-0.99;100.00
60337;BME280;46978;50.288;28.624;2023-04-04T00:59:45;99164.28;;;-0.98;100.00
60337;BME280;46978;50.288;28.624;2023-04-04T01:00:48;99162.58;;;-0.99;100.00
60337;BME280;46978;50.288;28.624;2023-04-04T01:01:49;99160.89;;;-0.98;100.00
60337;BME280;46978;50.288;28.624;2023-04-04T01:02:53;99162.55;;;-1.00;100.00
60337;BME280;46978;50.288;28.624;2023-04-04T01:03:54;99162.62;;;-0.97;100.00
60337;BME280;46978;50.288;28.624;2023-04-04T01:04:56;99166.83;;;-0.98;100.00
60337;BME280;46978;50.288;28.624;2023-04-04T01:05:58;99159.19;;;-0.98;100.00
60337;BME280;46978;50.288;28.624;2023-04-04T01:07:03;99166.72;;;-1.02;100.00
60337;BME280;46978;50.288;28.624;2023-04-04T01:08:05;99169.26;;;-1.02;100.00
60337;BME280;46978;50.288;28.624;2023-04-04T01:09:07;99165.83;;;-1.04;100.00
60337;BME280;46978;50.288;28.624;2023-04-04T01:10:10;99165.02;;;-1.03;100.00
60337;BME280;46978;50.288;28.624;2023-04-04T01:11:12;99168.33;;;-1.06;100.00
60337;BME280;46978;50.288;28.624;2023-04-04T01:12:13;99157.30;;;-1.06;100.00
60337;BME280;46978;50.288;28.624;2023-04-04T01:13:15;99162.39;;;-1.06;100.00
60337;BME280;46978;50.288;28.624;2023-04-04T01:14:17;99170.87;;;-1.06;100.00
60337;BME280;46978;50.288;28.624;2023-04-04T01:15:19;99174.27;;;-1.05;100.00
60337;BME280;46978;50.288;28.624;2023-04-04T01:16:20;99164.97;;;-1.05;100.00
60337;BME280;46978;50.288;28.624;2023-04-04T01:17:23;99164.09;;;-1.05;100.00
60337;BME280;46978;50.288;28.624;2023-04-04T01:18:30;99164.97;;;-1.05;100.00
60337;BME280;46978;50.288;28.624;2023-04-04T01:19:36;99160.69;;;-1.06;100.00
60337;BME280;46978;50.288;28.624;2023-04-04T01:20:59;99161.55;;;-1.05;100.00
60337;BME280;46978;50.288;28.624;2023-04-04T01:22:03;99162.47;;;-1.03;100.00
60337;BME280;46978;50.288;28.624;2023-04-04T01:23:06;99163.28;;;-1.04;100.00
60337;BME280;46978;50.288;28.624;2023-04-04T01:24:09;99169.22;;;-1.04;100.00
60337;BME280;46978;50.288;28.624;2023-04-04T01:25:14;99169.30;;;-1.01;100.00
60337;BME280;46978;50.288;28.624;2023-04-04T01:26:16;99169.30;;;-1.01;100.00
60337;BME280;46978;50.288;28.624;2023-04-04T01:27:18;99165.05;;;-1.02;100.00
60337;BME280;46978;50.288;28.624;2023-04-04T01:28:19;99164.17;;;-1.02;100.00
60337;BME280;46978;50.288;28.624;2023-04-04T01:29:21;99164.20;;;-1.01;100.00
60337;BME280;46978;50.288;28.624;2023-04-04T01:30:26;99160.84;;;-1.00;100.00
60337;BME280;46978;50.288;28.624;2023-04-04T01:31:52;99154.05;;;-0.99;100.00
60337;BME280;46978;50.288;28.624;2023-04-04T01:32:57;99154.94;;;-0.99;100.00
60337;BME280;46978;50.288;28.624;2023-04-04T01:35:51;99158.30;;;-1.00;100.00
60337;BME280;46978;50.288;28.624;2023-04-04T01:37:00;99149.70;;;-1.05;100.00
60337;BME280;46978;50.288;28.624;2023-04-04T01:38:07;99151.39;;;-1.04;100.00
60337;BME280;46978;50.288;28.624;2023-04-04T01:40:25;99147.22;;;-1.02;100.00
60337;BME280;46978;50.288;28.624;2023-04-04T01:41:32;99136.96;;;-1.05;100.00
60337;BME280;46978;50.288;28.624;2023-04-04T01:42:34;99145.45;;;-1.04;100.00
60337;BME280;46978;50.288;28.624;2023-04-04T01:43:36;99130.17;;;-1.04;100.00
60337;BME280;46978;50.288;28.624;2023-04-04T01:44:38;99133.50;;;-1.07;100.00
60337;BME280;46978;50.288;28.624;2023-04-04T01:45:40;99126.63;;;-1.11;100.00
60337;BME280;46978;50.288;28.624;2023-04-04T01:46:42;99127.40;;;-1.14;100.00
60337;BME280;46978;50.288;28.624;2023-04-04T01:47:44;99134.19;;;-1.14;100.00
60337;BME280;46978;50.288;28.624;2023-04-04T01:48:46;99132.49;;;-1.14;100.00
60337;BME280;46978;50.288;28.624;2023-04-04T01:49:47;99129.91;;;-1.15;100.00
60337;BME280;46978;50.288;28.624;2023-04-04T01:50:49;99127.32;;;-1.17;100.00
60337;BME280;46978;50.288;28.624;2023-04-04T01:51:53;99130.80;;;-1.13;100.00
60337;BME280;46978;50.288;28.624;2023-04-04T01:52:54;99119.80;;;-1.12;100.00
60337;BME280;46978;50.288;28.624;2023-04-04T01:53:57;99119.80;;;-1.12;100.00
60337;BME280;46978;50.288;28.624;2023-04-04T01:54:59;99122.38;;;-1.11;100.00
60337;BME280;46978;50.288;28.624;2023-04-04T01:56:01;99115.55;;;-1.12;100.00
60337;BME280;46978;50.288;28.624;2023-04-04T01:57:04;99115.55;;;-1.12;100.00
60337;BME280;46978;50.288;28.624;2023-04-04T01:58:06;99123.04;;;-1.18;100.00
60337;BME280;46978;50.288;28.624;2023-04-04T01:59:07;99123.89;;;-1.19;100.00
60337;BME280;46978;50.288;28.624;2023-04-04T02:00:11;99119.64;;;-1.18;100.00
60337;BME280;46978;50.288;28.624;2023-04-04T02:01:13;99126.43;;;-1.19;100.00
60337;BME280;46978;50.288;28.624;2023-04-04T02:02:15;99123.92;;;-1.17;100.00
60337;BME280;46978;50.288;28.624;2023-04-04T02:03:16;99125.55;;;-1.19;100.00
60337;BME280;46978;50.288;28.624;2023-04-04T02:04:18;99126.43;;;-1.19;100.00
60337;BME280;46978;50.288;28.624;2023-04-04T02:05:43;99127.20;;;-1.21;100.00
60337;BME280;46978;50.288;28.624;2023-04-04T02:06:44;99127.20;;;-1.21;100.00
60337;BME280;46978;50.288;28.624;2023-04-04T02:07:47;99125.55;;;-1.19;100.00
60337;BME280;46978;50.288;28.624;2023-04-04T02:08:49;99130.64;;;-1.19;100.00
60337;BME280;46978;50.288;28.624;2023-04-04T02:09:51;99133.99;;;-1.22;100.00
60337;BME280;46978;50.288;28.624;2023-04-04T02:10:52;99137.39;;;-1.21;100.00
60337;BME280;46978;50.288;28.624;2023-04-04T02:11:54;99141.70;;;-1.19;100.00
60337;BME280;46978;50.288;28.624;2023-04-04T02:12:56;99151.89;;;-1.19;100.00
60337;BME280;46978;50.288;28.624;2023-04-04T02:13:57;99153.59;;;-1.18;100.00
60337;BME280;46978;50.288;28.624;2023-04-04T02:15:00;99158.69;;;-1.18;100.00
60337;BME280;46978;50.288;28.624;2023-04-04T02:16:02;99163.78;;;-1.18;100.00
60337;BME280;46978;50.288;28.624;2023-04-04T02:17:04;99163.81;;;-1.16;100.00
60337;BME280;46978;50.288;28.624;2023-04-04T02:18:06;99161.31;;;-1.15;100.00
60337;BME280;46978;50.288;28.624;2023-04-04T02:19:07;99159.65;;;-1.14;100.00
60337;BME280;46978;50.288;28.624;2023-04-04T02:20:09;99168.17;;;-1.12;100.00
60337;BME280;46978;50.288;28.624;2023-04-04T02:21:11;99163.94;;;-1.12;100.00
60337;BME280;46978;50.288;28.624;2023-04-04T02:22:13;99161.42;;;-1.10;100.00
60337;BME280;46978;50.288;28.624;2023-04-04T02:23:14;99169.03;;;-1.12;100.00
60337;BME280;46978;50.288;28.624;2023-04-04T02:24:16;99168.17;;;-1.12;100.00
60337;BME280;46978;50.288;28.624;2023-04-04T02:25:19;99169.98;;;-1.08;100.00
60337;BME280;46978;50.288;28.624;2023-04-04T02:26:21;99179.29;;;-1.09;100.00
60337;BME280;46978;50.288;28.624;2023-04-04T02:27:23;99176.75;;;-1.09;100.00
60337;BME280;46978;50.288;28.624;2023-04-04T02:28:29;99174.23;;;-1.07;100.00
60337;BME280;46978;50.288;28.624;2023-04-04T02:29:31;99168.22;;;-1.11;100.00
60337;BME280;46978;50.288;28.624;2023-04-04T02:30:32;99179.13;;;-1.15;100.00
60337;BME280;46978;50.288;28.624;2023-04-04T02:31:34;99179.13;;;-1.15;100.00
60337;BME280;46978;50.288;28.624;2023-04-04T02:32:36;99169.75;;;-1.17;100.00
60337;BME280;46978;50.288;28.624;2023-04-04T02:33:38;99172.26;;;-1.19;100.00
60337;BME280;46978;50.288;28.624;2023-04-04T02:34:39;99170.48;;;-1.21;100.00
60337;BME280;46978;50.288;28.624;2023-04-04T02:35:41;99169.63;;;-1.22;100.00
60337;BME280;46978;50.288;28.624;2023-04-04T02:36:45;99170.41;;;-1.24;100.00
60337;BME280;46978;50.288;28.624;2023-04-04T02:37:46;99172.14;;;-1.23;100.00
60337;BME280;46978;50.288;28.624;2023-04-04T02:38:48;99168.79;;;-1.21;100.00
60337;BME280;46978;50.288;28.624;2023-04-04T02:39:50;99174.77;;;-1.20;100.00
60337;BME280;46978;50.288;28.624;2023-04-04T02:40:52;99184.87;;;-1.23;100.00
60337;BME280;46978;50.288;28.624;2023-04-04T02:41:53;99176.42;;;-1.21;100.00
60337;BME280;46978;50.288;28.624;2023-04-04T02:42:55;99178.20;;;-1.18;100.00
60337;BME280;46978;50.288;28.624;2023-04-04T02:43:57;99185.87;;;-1.17;100.00
60337;BME280;46978;50.288;28.624;2023-04-04T02:44:58;99188.39;;;-1.18;100.00
60337;BME280;46978;50.288;28.624;2023-04-04T02:46:01;99182.41;;;-1.20;100.00
60337;BME280;46978;50.288;28.624;2023-04-04T02:47:04;99178.13;;;-1.21;100.00
60337;BME280;46978;50.288;28.624;2023-04-04T02:48:06;99191.74;;;-1.19;100.00
60337;BME280;46978;50.288;28.624;2023-04-04T02:49:08;99196.84;;;-1.19;100.00
60337;BME280;46978;50.288;28.624;2023-04-04T02:50:11;99194.29;;;-1.19;100.00
60337;BME280;46978;50.288;28.624;2023-04-04T02:51:12;99190.97;;;-1.17;100.00
60337;BME280;46978;50.288;28.624;2023-04-04T02:52:14;99190.12;;;-1.17;100.00
60337;BME280;46978;50.288;28.624;2023-04-04T02:53:16;99191.83;;;-1.16;100.00
60337;BME280;46978;50.288;28.624;2023-04-04T02:54:18;99187.53;;;-1.19;100.00
60337;BME280;46978;50.288;28.624;2023-04-04T02:55:20;99186.66;;;-1.19;100.00
60337;BME280;46978;50.288;28.624;2023-04-04T02:56:22;99184.03;;;-1.22;100.00
60337;BME280;46978;50.288;28.624;2023-04-04T02:57:23;99176.30;;;-1.26;100.00
60337;BME280;46978;50.288;28.624;2023-04-04T02:58:25;99184.75;;;-1.28;100.00
60337;BME280;46978;50.288;28.624;2023-04-04T02:59:28;99177.07;;;-1.30;100.00
60337;BME280;46978;50.288;28.624;2023-04-04T03:00:30;99178.77;;;-1.29;100.00
60337;BME280;46978;50.288;28.624;2023-04-04T03:01:31;99176.27;;;-1.27;100.00
60337;BME280;46978;50.288;28.624;2023-04-04T03:02:33;99178.00;;;-1.26;100.00
60337;BME280;46978;50.288;28.624;2023-04-04T03:03:35;99167.05;;;-1.23;100.00
60337;BME280;46978;50.288;28.624;2023-04-04T03:04:36;99174.61;;;-1.27;100.00
60337;BME280;46978;50.288;28.624;2023-04-04T03:05:38;99162.73;;;-1.26;100.00
60337;BME280;46978;50.288;28.624;2023-04-04T03:06:40;99155.98;;;-1.24;100.00
60337;BME280;46978;50.288;28.624;2023-04-04T03:07:42;99154.32;;;-1.23;100.00
60337;BME280;46978;50.288;28.624;2023-04-04T03:08:43;99150.89;;;-1.24;100.00
60337;BME280;46978;50.288;28.624;2023-04-04T03:09:47;99156.87;;;-1.23;100.00
60337;BME280;46978;50.288;28.624;2023-04-04T03:10:49;99151.73;;;-1.25;100.00
60337;BME280;46978;50.288;28.624;2023-04-04T03:11:50;99159.38;;;-1.25;100.00
60337;BME280;46978;50.288;28.624;2023-04-04T03:12:52;99155.13;;;-1.24;100.00
60337;BME280;46978;50.288;28.624;2023-04-04T03:14:12;99154.32;;;-1.23;100.00
60337;BME280;46978;50.288;28.624;2023-04-04T03:15:14;99152.66;;;-1.21;100.00
60337;BME280;46978;50.288;28.624;2023-04-04T03:16:16;99150.16;;;-1.20;100.00
60337;BME280;46978;50.288;28.624;2023-04-04T03:17:18;99156.06;;;-1.21;100.00
60337;BME280;46978;50.288;28.624;2023-04-04T03:18:20;99149.27;;;-1.22;100.00
60337;BME280;46978;50.288;28.624;2023-04-04T03:19:23;99152.59;;;-1.24;100.00
60337;BME280;46978;50.288;28.624;2023-04-04T03:20:44;99153.36;;;-1.27;100.00
60337;BME280;46978;50.288;28.624;2023-04-04T03:21:46;99159.38;;;-1.25;100.00
60337;BME280;46978;50.288;28.624;2023-04-04T03:22:48;99157.59;;;-1.28;100.00
60337;BME280;46978;50.288;28.624;2023-04-04T03:23:49;99160.06;;;-1.31;100.00
60337;BME280;46978;50.288;28.624;2023-04-04T03:24:51;99162.56;;;-1.32;100.00
60337;BME280;46978;50.288;28.624;2023-04-04T03:25:52;99165.11;;;-1.32;100.00
60337;BME280;46978;50.288;28.624;2023-04-04T03:26:54;99161.76;;;-1.31;100.00
60337;BME280;46978;50.288;28.624;2023-04-04T03:27:56;99171.09;;;-1.30;100.00
60337;BME280;46978;50.288;28.624;2023-04-04T03:28:57;99171.94;;;-1.31;100.00
60337;BME280;46978;50.288;28.624;2023-04-04T03:29:59;99169.39;;;-1.31;100.00
60337;BME280;46978;50.288;28.624;2023-04-04T03:31:04;99178.73;;;-1.30;100.00
60337;BME280;46978;50.288;28.624;2023-04-04T03:32:06;99177.03;;;-1.31;100.00
60337;BME280;46978;50.288;28.624;2023-04-04T03:33:09;99177.03;;;-1.31;100.00
60337;BME280;46978;50.288;28.624;2023-04-04T03:34:11;99180.34;;;-1.34;100.00
60337;BME280;46978;50.288;28.624;2023-04-04T03:35:31;99176.95;;;-1.34;100.00
60337;BME280;46978;50.288;28.624;2023-04-04T03:36:33;99179.58;;;-1.31;100.00
60337;BME280;46978;50.288;28.624;2023-04-04T03:37:34;99177.11;;;-1.28;100.00
60337;BME280;46978;50.288;28.624;2023-04-04T03:38:36;99175.41;;;-1.28;100.00
60337;BME280;46978;50.288;28.624;2023-04-04T03:39:38;99171.22;;;-1.26;100.00
60337;BME280;46978;50.288;28.624;2023-04-04T03:40:40;99170.36;;;-1.26;100.00
60337;BME280;46978;50.288;28.624;2023-04-04T03:41:41;99166.00;;;-1.30;100.00
60337;BME280;46978;50.288;28.624;2023-04-04T03:42:43;99163.50;;;-1.29;100.00
60337;BME280;46978;50.288;28.624;2023-04-04T03:43:44;99161.80;;;-1.30;100.00
60337;BME280;46978;50.288;28.624;2023-04-04T03:44:46;99155.02;;;-1.29;100.00
60337;BME280;46978;50.288;28.624;2023-04-04T03:45:48;99162.65;;;-1.29;100.00
60337;BME280;46978;50.288;28.624;2023-04-04T03:46:50;99166.05;;;-1.29;100.00
60337;BME280;46978;50.288;28.624;2023-04-04T03:47:52;99158.38;;;-1.30;100.00
60337;BME280;46978;50.288;28.624;2023-04-04T03:48:53;99167.54;;;-1.37;100.00
60337;BME280;46978;50.288;28.624;2023-04-04T03:49:56;99165.84;;;-1.38;100.00
60337;BME280;46978;50.288;28.624;2023-04-04T03:50:58;99165.08;;;-1.34;100.00
60337;BME280;46978;50.288;28.624;2023-04-04T03:52:20;99167.54;;;-1.37;100.00
60337;BME280;46978;50.288;28.624;2023-04-04T03:53:23;99168.42;;;-1.36;100.00
60337;BME280;46978;50.288;28.624;2023-04-04T03:54:27;99169.27;;;-1.36;100.00
60337;BME280;46978;50.288;28.624;2023-04-04T03:55:29;99157.28;;;-1.40;100.00
60337;BME280;46978;50.288;28.624;2023-04-04T03:56:31;99155.70;;;-1.36;100.00
60337;BME280;46978;50.288;28.624;2023-04-04T03:57:34;99155.73;;;-1.35;100.00
60337;BME280;46978;50.288;28.624;2023-04-04T03:58:36;99151.50;;;-1.34;100.00
60337;BME280;46978;50.288;28.624;2023-04-04T03:59:39;99147.25;;;-1.34;100.00
60337;BME280;46978;50.288;28.624;2023-04-04T04:00:40;99145.63;;;-1.32;100.00
60337;BME280;46978;50.288;28.624;2023-04-04T04:01:42;99149.88;;;-1.31;100.00
60337;BME280;46978;50.288;28.624;2023-04-04T04:02:44;99150.73;;;-1.30;100.00
60337;BME280;46978;50.288;28.624;2023-04-04T04:03:45;99152.47;;;-1.29;100.00
60337;BME280;46978;50.288;28.624;2023-04-04T04:04:47;99146.61;;;-1.27;100.00
60337;BME280;46978;50.288;28.624;2023-04-04T04:05:49;99155.13;;;-1.24;100.00
60337;BME280;46978;50.288;28.624;2023-04-04T04:06:51;99155.98;;;-1.24;100.00
60337;BME280;46978;50.288;28.624;2023-04-04T04:08:11;99152.51;;;-1.28;100.00
60337;BME280;46978;50.288;28.624;2023-04-04T04:09:12;99154.32;;;-1.23;100.00
60337;BME280;46978;50.288;28.624;2023-04-04T04:10:15;99151.73;;;-1.25;100.00
60337;BME280;46978;50.288;28.624;2023-04-04T04:11:17;99151.81;;;-1.22;100.00
60337;BME280;46978;50.288;28.624;2023-04-04T04:12:18;99151.77;;;-1.23;100.00
60337;BME280;46978;50.288;28.624;2023-04-04T04:13:20;99152.66;;;-1.21;100.00
60337;BME280;46978;50.288;28.624;2023-04-04T04:14:22;99144.95;;;-1.24;100.00
60337;BME280;46978;50.288;28.624;2023-04-04T04:15:23;99144.95;;;-1.24;100.00
60337;BME280;46978;50.288;28.624;2023-04-04T04:16:25;99151.77;;;-1.23;100.00
60337;BME280;46978;50.288;28.624;2023-04-04T04:17:27;99144.98;;;-1.23;100.00
60337;BME280;46978;50.288;28.624;2023-04-04T04:18:29;99145.76;;;-1.26;100.00
60337;BME280;46978;50.288;28.624;2023-04-04T04:19:31;99147.30;;;-1.32;100.00
60337;BME280;46978;50.288;28.624;2023-04-04T04:20:32;99158.38;;;-1.30;100.00
60337;BME280;46978;50.288;28.624;2023-04-04T04:21:37;99159.21;;;-1.31;100.00
60337;BME280;46978;50.288;28.624;2023-04-04T04:22:46;99148.23;;;-1.29;100.00
60337;BME280;46978;50.288;28.624;2023-04-04T04:23:48;99145.72;;;-1.27;100.00
60337;BME280;46978;50.288;28.624;2023-04-04T04:24:49;99155.09;;;-1.26;100.00
60337;BME280;46978;50.288;28.624;2023-04-04T04:25:51;99165.27;;;-1.26;100.00
60337;BME280;46978;50.288;28.624;2023-04-04T04:26:53;99161.92;;;-1.25;100.00
60337;BME280;46978;50.288;28.624;2023-04-04T04:27:55;99155.94;;;-1.26;100.00
60337;BME280;46978;50.288;28.624;2023-04-04T04:28:56;99157.67;;;-1.24;100.00
60337;BME280;46978;50.288;28.624;2023-04-04T04:29:58;99159.45;;;-1.22;100.00
60337;BME280;46978;50.288;28.624;2023-04-04T04:31:07;99161.16;;;-1.21;100.00
60337;BME280;46978;50.288;28.624;2023-04-04T04:32:09;99157.83;;;-1.18;100.00
60337;BME280;46978;50.288;28.624;2023-04-04T04:33:11;99160.42;;;-1.17;100.00
60337;BME280;46978;50.288;28.624;2023-04-04T04:34:15;99162.97;;;-1.17;100.00
60337;BME280;46978;50.288;28.624;2023-04-04T04:35:16;99162.03;;;-1.20;100.00
60337;BME280;46978;50.288;28.624;2023-04-04T04:36:18;99169.75;;;-1.17;100.00
60337;BME280;46978;50.288;28.624;2023-04-04T04:37:20;99176.55;;;-1.16;100.00
60337;BME280;46978;50.288;28.624;2023-04-04T04:38:22;99173.15;;;-1.17;100.00
60337;BME280;46978;50.288;28.624;2023-04-04T04:39:25;99179.02;;;-1.19;100.00
60337;BME280;46978;50.288;28.624;2023-04-04T04:40:26;99185.80;;;-1.20;100.00
60337;BME280;46978;50.288;28.624;2023-04-04T04:41:28;99188.39;;;-1.18;100.00
60337;BME280;46978;50.288;28.624;2023-04-04T04:42:30;99187.58;;;-1.17;100.00
60337;BME280;46978;50.288;28.624;2023-04-04T04:43:31;99185.03;;;-1.17;100.00
60337;BME280;46978;50.288;28.624;2023-04-04T04:44:33;99187.45;;;-1.22;100.00
60337;BME280;46978;50.288;28.624;2023-04-04T04:45:36;99193.40;;;-1.21;100.00
60337;BME280;46978;50.288;28.624;2023-04-04T04:46:38;99195.95;;;-1.21;100.00
60337;BME280;46978;50.288;28.624;2023-04-04T04:47:39;99200.23;;;-1.20;100.00
60337;BME280;46978;50.288;28.624;2023-04-04T04:48:41;99193.44;;;-1.20;100.00
60337;BME280;46978;50.288;28.624;2023-04-04T04:49:42;99196.91;;;-1.16;100.00
60337;BME280;46978;50.288;28.624;2023-04-04T04:50:46;99198.61;;;-1.17;100.00
60337;BME280;46978;50.288;28.624;2023-04-04T04:51:48;99217.28;;;-1.16;100.00
60337;BME280;46978;50.288;28.624;2023-04-04T04:52:50;99218.17;;;-1.16;100.00
60337;BME280;46978;50.288;28.624;2023-04-04T04:53:53;99227.47;;;-1.16;100.00
60337;BME280;46978;50.288;28.624;2023-04-04T04:54:55;99224.97;;;-1.15;100.00
60337;BME280;46978;50.288;28.624;2023-04-04T04:55:58;99232.69;;;-1.12;100.00
60337;BME280;46978;50.288;28.624;2023-04-04T04:57:00;99227.67;;;-1.09;100.00
60337;BME280;46978;50.288;28.624;2023-04-04T04:58:02;99227.55;;;-1.13;100.00
60337;BME280;46978;50.288;28.624;2023-04-04T04:59:03;99227.59;;;-1.12;100.00
60337;BME280;46978;50.288;28.624;2023-04-04T05:00:07;99216.59;;;-1.11;100.00
60337;BME280;46978;50.288;28.624;2023-04-04T05:01:08;99217.56;;;-1.05;100.00
60337;BME280;46978;50.288;28.624;2023-04-04T05:02:10;99215.95;;;-1.03;100.00
60337;BME280;46978;50.288;28.624;2023-04-04T05:03:12;99215.98;;;-1.02;100.00
60337;BME280;46978;50.288;28.624;2023-04-04T05:04:13;99216.75;;;-1.04;100.00
60337;BME280;46978;50.288;28.624;2023-04-04T05:05:15;99215.95;;;-1.03;100.00
60337;BME280;46978;50.288;28.624;2023-04-04T05:06:17;99208.30;;;-1.03;100.00
60337;BME280;46978;50.288;28.624;2023-04-04T05:07:18;99204.09;;;-1.01;100.00
60337;BME280;46978;50.288;28.624;2023-04-04T05:08:20;99201.59;;;-1.00;99.95
60337;BME280;46978;50.288;28.624;2023-04-04T05:09:22;99205.07;;;-0.96;100.00
60337;BME280;46978;50.288;28.624;2023-04-04T05:10:24;99198.39;;;-0.93;100.00
60337;BME280;46978;50.288;28.624;2023-04-04T05:11:27;99199.20;;;-0.94;99.83
60337;BME280;46978;50.288;28.624;2023-04-04T05:12:29;99204.22;;;-0.97;99.52
60337;BME280;46978;50.288;28.624;2023-04-04T05:13:32;99204.26;;;-0.95;99.27
60337;BME280;46978;50.288;28.624;2023-04-04T05:14:34;99202.60;;;-0.93;99.53
60337;BME280;46978;50.288;28.624;2023-04-04T05:15:35;99203.45;;;-0.94;99.06
60337;BME280;46978;50.288;28.624;2023-04-04T05:16:37;99199.24;;;-0.92;99.07
60337;BME280;46978;50.288;28.624;2023-04-04T05:17:39;99205.19;;;-0.92;99.06
60337;BME280;46978;50.288;28.624;2023-04-04T05:18:40;99203.41;;;-0.96;98.83
60337;BME280;46978;50.288;28.624;2023-04-04T05:19:42;99206.84;;;-0.94;99.09
60337;BME280;46978;50.288;28.624;2023-04-04T05:20:55;99210.13;;;-0.98;98.79
60337;BME280;46978;50.288;28.624;2023-04-04T05:21:56;99206.77;;;-0.97;98.94
60337;BME280;46978;50.288;28.624;2023-04-04T05:22:58;99201.75;;;-0.94;99.21
60337;BME280;46978;50.288;28.624;2023-04-04T05:24:01;99189.09;;;-0.91;99.02
60337;BME280;46978;50.288;28.624;2023-04-04T05:25:04;99195.11;;;-0.87;99.26
60337;BME280;46978;50.288;28.624;2023-04-04T05:26:06;99200.98;;;-0.91;98.75
60337;BME280;46978;50.288;28.624;2023-04-04T05:27:08;99198.43;;;-0.91;98.69